createdAt,value
2022-10-31T00:00:25.123Z,37
2022-10-31T00:02:55.803Z,32
2022-10-31T00:05:26.227Z,33
2022-10-31T00:07:56.912Z,29
2022-10-31T00:10:27.283Z,29
2022-10-31T00:12:58.395Z,32
2022-10-31T00:15:28.479Z,31
2022-10-31T00:17:59.181Z,29
2022-10-31T00:20:29.044Z,34
2022-10-31T00:22:59.150Z,33
2022-10-31T00:25:29.261Z,34
2022-10-31T00:28:00.043Z,34
2022-10-31T00:30:30.537Z,35
2022-10-31T00:33:01.363Z,32
2022-10-31T00:35:31.253Z,33
2022-10-31T00:38:01.386Z,42
2022-10-31T00:40:31.695Z,40
2022-10-31T00:43:02.741Z,39
2022-10-31T00:45:32.899Z,37
2022-10-31T00:48:03.562Z,32
2022-10-31T00:50:34.046Z,38
2022-10-31T00:53:04.521Z,41
2022-10-31T00:55:34.825Z,34
2022-10-31T00:58:05.467Z,35
2022-10-31T01:00:35.204Z,32
2022-10-31T01:03:05.497Z,39
2022-10-31T01:05:35.516Z,35
2022-10-31T01:08:06.269Z,41
2022-10-31T01:10:36.987Z,35
2022-10-31T01:13:07.575Z,39
2022-10-31T01:15:37.980Z,34
2022-10-31T01:18:08.279Z,40
2022-10-31T01:20:38.791Z,30
2022-10-31T01:23:09.190Z,32
2022-10-31T01:25:39.838Z,37
2022-10-31T01:28:09.921Z,33
2022-10-31T01:30:40.443Z,42
2022-10-31T01:33:10.970Z,35
2022-10-31T01:35:41.599Z,35
2022-10-31T01:38:12.135Z,37
2022-10-31T01:40:42.795Z,34
2022-10-31T01:43:13.340Z,42
2022-10-31T01:45:43.961Z,37
2022-10-31T01:48:14.400Z,39
2022-10-31T01:50:45.000Z,40
2022-10-31T01:53:14.892Z,34
2022-10-31T01:55:45.317Z,44
2022-10-31T01:58:15.592Z,38
2022-10-31T02:00:45.615Z,37
2022-10-31T02:03:16.342Z,42
2022-10-31T02:05:47.070Z,42
2022-10-31T02:08:17.852Z,38
2022-10-31T02:10:47.839Z,42
2022-10-31T02:13:18.479Z,44
2022-10-31T02:15:49.203Z,36
2022-10-31T02:18:19.668Z,39
2022-10-31T02:20:50.450Z,37
2022-10-31T02:23:21.344Z,39
2022-10-31T02:25:51.783Z,37
2022-10-31T02:28:22.257Z,48
2022-10-31T02:30:52.393Z,39
2022-10-31T02:33:22.842Z,39
2022-10-31T02:35:53.064Z,33
2022-10-31T02:38:23.570Z,35
2022-10-31T02:40:53.956Z,33
2022-10-31T02:43:24.813Z,41
2022-10-31T02:45:55.289Z,31
2022-10-31T02:48:25.576Z,28
2022-10-31T02:50:56.225Z,22
2022-10-31T02:53:26.935Z,24
2022-10-31T02:55:57.004Z,23
2022-10-31T02:58:27.588Z,28
2022-10-31T03:00:58.296Z,25
2022-10-31T03:03:28.386Z,25
2022-10-31T03:05:58.806Z,26
2022-10-31T03:08:29.344Z,29
2022-10-31T03:10:59.463Z,29
2022-10-31T03:13:29.527Z,32
2022-10-31T03:15:59.643Z,30
2022-10-31T03:18:30.447Z,26
2022-10-31T03:21:01.084Z,36
2022-10-31T03:23:31.262Z,21
2022-10-31T03:26:01.745Z,19
2022-10-31T03:28:32.264Z,22
2022-10-31T03:31:04.857Z,20
2022-10-31T03:33:33.875Z,21
2022-10-31T03:36:04.250Z,19
2022-10-31T03:38:34.727Z,18
2022-10-31T03:41:05.181Z,18
2022-10-31T03:43:36.002Z,21
2022-10-31T03:46:06.577Z,16
2022-10-31T03:48:37.000Z,18
2022-10-31T03:51:07.202Z,19
2022-10-31T03:53:37.366Z,19
2022-10-31T03:56:07.870Z,18
2022-10-31T03:58:38.513Z,16
2022-10-31T04:01:09.121Z,21
2022-10-31T04:03:39.479Z,16
2022-10-31T04:06:10.190Z,20
2022-10-31T04:08:40.683Z,21
2022-10-31T04:11:11.162Z,19
2022-10-31T04:13:41.678Z,18
2022-10-31T04:16:15.990Z,18
2022-10-31T04:18:42.624Z,19
2022-10-31T04:21:13.112Z,20
2022-10-31T04:23:43.386Z,19
2022-10-31T04:26:13.853Z,22
2022-10-31T04:28:44.402Z,21
2022-10-31T04:31:14.897Z,21
2022-10-31T04:33:45.132Z,24
2022-10-31T04:36:15.603Z,22
2022-10-31T04:38:46.172Z,33
2022-10-31T04:41:16.465Z,42
2022-10-31T04:43:47.379Z,37
2022-10-31T04:46:17.930Z,34
2022-10-31T04:48:48.752Z,46
2022-10-31T04:51:18.773Z,46
2022-10-31T04:53:49.237Z,21
2022-10-31T04:56:19.743Z,24
2022-10-31T04:58:50.432Z,31
2022-10-31T05:01:21.021Z,31
2022-10-31T05:03:51.180Z,47
2022-10-31T05:06:21.214Z,28
2022-10-31T05:08:51.640Z,32
2022-10-31T05:11:21.729Z,31
2022-10-31T05:13:52.395Z,32
2022-10-31T05:16:22.653Z,35
2022-10-31T05:18:53.090Z,33
2022-10-31T05:21:23.948Z,44
2022-10-31T05:23:54.052Z,35
2022-10-31T05:26:24.874Z,39
2022-10-31T05:28:55.244Z,37
2022-10-31T05:31:25.737Z,42
2022-10-31T05:33:56.388Z,37
2022-10-31T05:36:27.152Z,34
2022-10-31T05:38:57.957Z,36
2022-10-31T05:41:28.890Z,31
2022-10-31T05:43:58.818Z,42
2022-10-31T05:46:29.193Z,44
2022-10-31T05:49:01.796Z,40
2022-10-31T05:51:30.373Z,44
2022-10-31T05:54:00.717Z,39
2022-10-31T05:56:30.823Z,41
2022-10-31T05:59:01.038Z,30
2022-10-31T06:01:31.539Z,28
2022-10-31T06:04:01.809Z,25
2022-10-31T06:06:32.641Z,25
2022-10-31T06:09:03.367Z,27
2022-10-31T06:11:33.574Z,29
2022-10-31T06:14:04.416Z,29
2022-10-31T06:16:34.644Z,26
2022-10-31T06:19:05.187Z,32
2022-10-31T06:21:35.416Z,30
2022-10-31T06:24:05.617Z,31
2022-10-31T06:26:36.411Z,33
2022-10-31T06:29:06.668Z,28
2022-10-31T06:31:36.754Z,26
2022-10-31T06:34:06.950Z,25
2022-10-31T06:36:37.049Z,28
2022-10-31T06:39:07.626Z,31
2022-10-31T06:41:37.703Z,31
2022-10-31T06:44:08.984Z,23
2022-10-31T06:46:39.054Z,26
2022-10-31T06:49:09.588Z,40
2022-10-31T06:51:39.962Z,30
2022-10-31T06:54:10.871Z,39
2022-10-31T06:56:40.962Z,32
2022-10-31T06:59:11.876Z,39
2022-10-31T07:01:42.009Z,32
2022-10-31T07:04:12.571Z,32
2022-10-31T07:06:42.701Z,39
2022-10-31T07:09:13.539Z,32
2022-10-31T07:11:44.127Z,33
2022-10-31T07:14:15.098Z,39
2022-10-31T07:16:45.019Z,27
2022-10-31T07:19:15.235Z,27
2022-10-31T07:21:45.357Z,48
2022-10-31T07:24:16.005Z,33
2022-10-31T07:26:46.260Z,30
2022-10-31T07:29:16.626Z,95
2022-10-31T07:31:47.177Z,38
2022-10-31T07:34:17.751Z,33
2022-10-31T07:36:48.191Z,41
2022-10-31T07:39:18.422Z,38
2022-10-31T07:41:49.191Z,37
2022-10-31T07:44:19.324Z,36
2022-10-31T07:46:49.488Z,39
2022-10-31T07:49:19.809Z,48
2022-10-31T07:51:50.285Z,46
2022-10-31T07:54:20.895Z,34
2022-10-31T07:56:51.119Z,30
2022-10-31T07:59:21.454Z,31
2022-10-31T08:01:51.634Z,43
2022-10-31T08:04:22.147Z,28
2022-10-31T08:06:52.176Z,39
2022-10-31T08:09:22.807Z,41
2022-10-31T08:11:53.064Z,31
2022-10-31T08:14:23.581Z,37
2022-10-31T08:16:54.124Z,32
2022-10-31T08:19:24.617Z,31
2022-10-31T08:21:55.494Z,36
2022-10-31T08:24:25.866Z,33
2022-10-31T08:26:55.936Z,38
2022-10-31T08:29:25.891Z,36
2022-10-31T08:31:56.150Z,37
2022-10-31T08:34:26.628Z,35
2022-10-31T08:36:56.935Z,42
2022-10-31T08:39:27.390Z,35
2022-10-31T08:41:57.907Z,34
2022-10-31T08:44:28.472Z,33
2022-10-31T08:46:58.551Z,35
2022-10-31T08:49:28.638Z,35
2022-10-31T08:51:58.771Z,33
2022-10-31T08:54:29.012Z,42
2022-10-31T08:56:59.860Z,39
2022-10-31T08:59:30.554Z,38
2022-10-31T09:02:00.856Z,38
2022-10-31T09:04:30.855Z,47
2022-10-31T09:07:20.129Z,41
2022-10-31T09:09:31.182Z,42
2022-10-31T09:12:01.704Z,41
2022-10-31T09:14:32.360Z,43
2022-10-31T09:17:03.004Z,52
2022-10-31T09:19:33.181Z,42
2022-10-31T09:22:03.512Z,42
2022-10-31T09:24:34.193Z,36
2022-10-31T09:27:04.612Z,41
2022-10-31T09:29:35.460Z,40
2022-10-31T09:32:05.848Z,32
2022-10-31T09:34:36.687Z,35
2022-10-31T09:37:07.102Z,33
2022-10-31T09:39:37.411Z,38
2022-10-31T09:42:08.221Z,43
2022-10-31T09:44:39.102Z,37
2022-10-31T09:47:09.665Z,38
2022-10-31T09:49:40.157Z,41
2022-10-31T09:54:40.520Z,39
2022-10-31T09:57:10.826Z,44
2022-10-31T09:59:41.490Z,45
2022-10-31T10:02:11.855Z,37
2022-10-31T10:04:42.211Z,43
2022-10-31T10:07:12.367Z,37
2022-10-31T10:09:43.160Z,47
2022-10-31T10:12:13.368Z,37
2022-10-31T10:14:44.126Z,42
2022-10-31T10:17:14.249Z,41
2022-10-31T10:19:44.626Z,41
2022-10-31T10:22:14.719Z,39
2022-10-31T10:24:45.309Z,37
2022-10-31T10:27:17.920Z,40
2022-10-31T10:29:45.865Z,44
2022-10-31T10:32:16.474Z,41
2022-10-31T10:34:46.772Z,43
2022-10-31T10:37:17.619Z,36
2022-10-31T10:39:47.632Z,39
2022-10-31T10:42:18.425Z,41
2022-10-31T10:44:48.537Z,37
2022-10-31T10:47:19.039Z,42
2022-10-31T10:49:49.490Z,40
2022-10-31T10:52:39.636Z,32
2022-10-31T10:54:50.593Z,41
2022-10-31T10:57:20.677Z,35
2022-10-31T10:59:51.068Z,34
2022-10-31T11:02:21.312Z,29
2022-10-31T11:04:51.900Z,26
2022-10-31T11:07:22.476Z,27
2022-10-31T11:09:52.479Z,22
2022-10-31T11:12:22.513Z,23
2022-10-31T11:14:53.346Z,23
2022-10-31T11:17:23.988Z,28
2022-10-31T11:19:54.619Z,28
2022-10-31T11:22:25.031Z,24
2022-10-31T11:24:55.546Z,23
2022-10-31T11:27:25.929Z,19
2022-10-31T11:30:00.615Z,28
2022-10-31T11:32:26.448Z,23
2022-10-31T11:34:56.519Z,19
2022-10-31T11:37:26.568Z,21
2022-10-31T11:39:57.256Z,23
2022-10-31T11:42:27.246Z,15
2022-10-31T11:44:57.665Z,18
2022-10-31T11:47:27.701Z,18
2022-10-31T11:49:57.779Z,16
2022-10-31T11:52:27.867Z,17
2022-10-31T11:54:58.191Z,17
2022-10-31T11:57:28.544Z,15
2022-10-31T11:59:59.213Z,17
2022-10-31T12:02:29.246Z,17
2022-10-31T12:04:59.596Z,20
2022-10-31T12:07:29.961Z,21
2022-10-31T12:10:00.643Z,24
2022-10-31T12:12:31.285Z,24
2022-10-31T12:15:01.449Z,20
2022-10-31T12:17:31.772Z,20
2022-10-31T12:20:01.790Z,18
2022-10-31T12:22:32.131Z,18
2022-10-31T12:25:02.344Z,21
2022-10-31T12:27:32.325Z,15
2022-10-31T12:30:02.852Z,20
2022-10-31T12:32:33.274Z,21
2022-10-31T12:35:03.851Z,16
2022-10-31T12:37:33.783Z,18
2022-10-31T12:40:04.303Z,17
2022-10-31T12:42:34.430Z,19
2022-10-31T12:45:04.845Z,16
2022-10-31T12:47:35.129Z,18
2022-10-31T12:50:05.482Z,19
2022-10-31T12:52:36.029Z,19
2022-10-31T12:55:06.836Z,21
2022-10-31T12:57:37.471Z,25
2022-10-31T13:00:08.139Z,21
2022-10-31T13:02:38.115Z,21
2022-10-31T13:05:08.188Z,19
2022-10-31T13:07:38.850Z,18
2022-10-31T13:10:08.896Z,18
2022-10-31T13:12:38.911Z,17
2022-10-31T13:15:09.497Z,17
2022-10-31T13:17:39.517Z,18
2022-10-31T13:20:10.318Z,16
2022-10-31T13:22:41.041Z,19
2022-10-31T13:25:11.609Z,20
2022-10-31T13:27:42.267Z,20
2022-10-31T13:30:13.041Z,16
2022-10-31T13:32:42.933Z,15
2022-10-31T13:35:13.478Z,18
2022-10-31T13:37:43.898Z,15
2022-10-31T13:40:14.011Z,14
2022-10-31T13:42:44.280Z,16
2022-10-31T13:45:14.653Z,12
2022-10-31T13:47:45.004Z,14
2022-10-31T13:50:19.186Z,11
2022-10-31T13:52:45.834Z,15
2022-10-31T13:55:16.134Z,15
2022-10-31T13:57:46.542Z,15
2022-10-31T14:00:16.622Z,17
2022-10-31T14:02:46.625Z,13
2022-10-31T14:05:17.268Z,13
2022-10-31T14:07:47.658Z,15
2022-10-31T14:10:17.733Z,15
2022-10-31T14:12:48.148Z,12
2022-10-31T14:15:18.722Z,17
2022-10-31T14:17:48.972Z,17
2022-10-31T14:20:19.346Z,15
2022-10-31T14:22:49.849Z,16
2022-10-31T14:25:19.780Z,18
2022-10-31T14:27:50.144Z,18
2022-10-31T14:30:20.528Z,21
2022-10-31T14:32:50.865Z,17
2022-10-31T14:35:21.696Z,16
2022-10-31T14:37:51.917Z,18
2022-10-31T14:40:22.473Z,18
2022-10-31T14:42:53.137Z,19
2022-10-31T14:45:23.528Z,19
2022-10-31T14:47:53.710Z,19
2022-10-31T14:50:24.156Z,17
2022-10-31T14:52:54.572Z,21
2022-10-31T14:55:24.640Z,19
2022-10-31T14:57:54.800Z,26
2022-10-31T15:00:25.657Z,26
2022-10-31T15:02:55.660Z,19
2022-10-31T15:05:26.037Z,23
2022-10-31T15:07:56.385Z,24
2022-10-31T15:10:26.762Z,22
2022-10-31T15:12:56.891Z,25
2022-10-31T15:15:26.928Z,29
2022-10-31T15:17:57.783Z,23
2022-10-31T15:20:28.346Z,29
2022-10-31T15:22:58.518Z,26
2022-10-31T15:25:29.048Z,33
2022-10-31T15:27:59.660Z,31
2022-10-31T15:30:29.612Z,29
2022-10-31T15:33:00.277Z,32
2022-10-31T15:35:31.298Z,29
2022-10-31T15:38:01.404Z,32
2022-10-31T15:40:31.510Z,28
2022-10-31T15:43:01.655Z,24
2022-10-31T15:45:31.737Z,29
2022-10-31T15:48:02.960Z,29
2022-10-31T15:50:32.989Z,32
2022-10-31T15:53:03.948Z,23
2022-10-31T15:55:34.307Z,26
2022-10-31T15:58:04.263Z,27
2022-10-31T16:00:34.657Z,22
2022-10-31T16:03:04.664Z,23
2022-10-31T16:05:35.215Z,23
2022-10-31T16:08:05.628Z,21
2022-10-31T16:10:35.700Z,20
2022-10-31T16:13:05.788Z,24
2022-10-31T16:15:35.816Z,17
2022-10-31T16:18:06.176Z,20
2022-10-31T16:20:36.528Z,24
2022-10-31T16:23:06.811Z,21
2022-10-31T16:25:37.200Z,20
2022-10-31T16:28:07.198Z,18
2022-10-31T16:30:37.355Z,18
2022-10-31T16:33:07.812Z,18
2022-10-31T16:35:38.136Z,20
2022-10-31T16:38:08.124Z,24
2022-10-31T16:40:38.770Z,19
2022-10-31T16:43:09.095Z,17
2022-10-31T16:45:39.503Z,20
2022-10-31T16:48:09.987Z,29
2022-10-31T16:50:40.502Z,24
2022-10-31T16:53:14.781Z,26
2022-10-31T16:55:40.978Z,23
2022-10-31T16:58:11.514Z,23
2022-10-31T17:00:41.623Z,24
2022-10-31T17:03:11.971Z,25
2022-10-31T17:05:42.575Z,29
2022-10-31T17:08:12.593Z,28
2022-10-31T17:10:43.016Z,23
2022-10-31T17:13:12.996Z,30
2022-10-31T17:15:43.449Z,25
2022-10-31T17:18:14.027Z,27
2022-10-31T17:20:44.236Z,24
2022-10-31T17:23:14.800Z,26
2022-10-31T17:25:45.295Z,30
2022-10-31T17:28:16.056Z,26
2022-10-31T17:30:46.652Z,26
2022-10-31T17:33:16.993Z,25
2022-10-31T17:35:47.613Z,27
2022-10-31T17:38:18.198Z,27
2022-10-31T17:43:19.126Z,32
2022-10-31T17:45:49.926Z,32
2022-10-31T17:48:20.005Z,35
2022-10-31T17:50:50.035Z,28
2022-10-31T17:53:20.419Z,25
2022-10-31T17:55:51.126Z,23
2022-10-31T17:58:21.405Z,26
2022-10-31T18:00:51.964Z,29
2022-10-31T18:03:22.137Z,31
2022-10-31T18:05:52.355Z,33
2022-10-31T18:08:22.874Z,24
2022-10-31T18:10:52.930Z,24
2022-10-31T18:13:23.290Z,22
2022-10-31T18:15:53.560Z,31
2022-10-31T18:18:23.812Z,24
2022-10-31T18:20:53.865Z,30
2022-10-31T18:23:24.197Z,27
2022-10-31T18:25:54.921Z,24
2022-10-31T18:28:25.550Z,25
2022-10-31T18:30:56.201Z,30
2022-10-31T18:33:26.241Z,24
2022-10-31T18:35:56.520Z,31
2022-10-31T18:38:26.946Z,27
2022-10-31T18:40:57.057Z,23
2022-10-31T18:43:27.369Z,28
2022-10-31T18:45:58.307Z,26
2022-10-31T18:48:27.835Z,23
2022-10-31T18:50:58.050Z,26
2022-10-31T18:53:28.499Z,28
2022-10-31T18:55:58.623Z,33
2022-10-31T18:58:29.053Z,24
2022-10-31T19:00:59.514Z,28
2022-10-31T19:03:30.034Z,28
2022-10-31T19:06:00.680Z,25
2022-10-31T19:08:31.189Z,29
2022-10-31T19:11:01.819Z,25
2022-10-31T19:13:31.797Z,24
2022-10-31T19:16:01.981Z,25
2022-10-31T19:18:32.261Z,30
2022-10-31T19:21:02.331Z,23
2022-10-31T19:23:32.990Z,25
2022-10-31T19:26:03.646Z,25
2022-10-31T19:28:34.313Z,29
2022-10-31T19:31:04.395Z,30
2022-10-31T19:33:36.181Z,23
2022-10-31T19:36:05.061Z,27
2022-10-31T19:38:35.775Z,24
2022-10-31T19:41:06.175Z,22
2022-10-31T19:43:36.617Z,24
2022-10-31T19:46:06.846Z,20
2022-10-31T19:48:37.225Z,20
2022-10-31T19:51:07.925Z,22
2022-10-31T19:53:38.135Z,26
2022-10-31T19:56:08.710Z,27
2022-10-31T19:58:39.057Z,24
2022-10-31T20:01:09.578Z,24
2022-10-31T20:03:40.032Z,29
2022-10-31T20:06:10.166Z,29
2022-10-31T20:08:40.251Z,30
2022-10-31T20:11:10.880Z,26
2022-10-31T20:13:40.995Z,26
2022-10-31T20:16:11.072Z,25
2022-10-31T20:18:41.474Z,22
2022-10-31T20:21:12.107Z,25
2022-10-31T20:23:42.448Z,22
2022-10-31T20:26:12.709Z,23
2022-10-31T20:28:43.637Z,26
2022-10-31T20:31:13.318Z,32
2022-10-31T20:33:43.458Z,25
2022-10-31T20:36:13.528Z,24
2022-10-31T20:38:44.289Z,22
2022-10-31T20:41:14.728Z,31
2022-10-31T20:43:45.272Z,28
2022-10-31T20:46:15.428Z,25
2022-10-31T20:48:46.135Z,26
2022-10-31T20:53:47.237Z,28
2022-10-31T20:56:17.888Z,22
2022-10-31T20:58:48.413Z,23
2022-10-31T21:01:18.555Z,28
2022-10-31T21:03:48.843Z,29
2022-10-31T21:06:19.029Z,27
2022-10-31T21:08:49.807Z,29
2022-10-31T21:11:20.479Z,23
2022-10-31T21:13:51.181Z,24
2022-10-31T21:16:21.877Z,24
2022-10-31T21:18:52.505Z,27
2022-10-31T21:21:27.575Z,25
2022-10-31T21:23:54.022Z,28
2022-10-31T21:26:24.394Z,24
2022-10-31T21:28:54.545Z,29
2022-10-31T21:31:24.913Z,24
2022-10-31T21:33:55.058Z,24
2022-10-31T21:36:25.775Z,19
2022-10-31T21:38:56.204Z,28
2022-10-31T21:41:26.512Z,34
2022-10-31T21:43:56.930Z,26
2022-10-31T21:46:27.570Z,30
2022-10-31T21:48:58.030Z,25
2022-10-31T21:51:28.764Z,25
2022-10-31T21:53:59.417Z,28
2022-10-31T21:56:30.139Z,23
2022-10-31T21:59:00.559Z,22
2022-10-31T22:01:30.833Z,28
2022-10-31T22:04:01.379Z,25
2022-10-31T22:06:31.546Z,25
2022-10-31T22:09:02.069Z,24
2022-10-31T22:11:32.074Z,24
2022-10-31T22:14:02.809Z,25
2022-10-31T22:16:33.542Z,22
2022-10-31T22:19:04.164Z,25
2022-10-31T22:21:34.621Z,22
2022-10-31T22:24:07.760Z,27
2022-10-31T22:26:36.004Z,26
2022-10-31T22:29:06.810Z,27
2022-10-31T22:31:37.189Z,23
2022-10-31T22:34:07.287Z,30
2022-10-31T22:36:37.758Z,22
2022-10-31T22:39:08.380Z,21
2022-10-31T22:41:38.820Z,23
2022-10-31T22:44:09.265Z,24
2022-10-31T22:46:39.418Z,22
2022-10-31T22:49:10.204Z,24
2022-10-31T22:51:40.346Z,34
2022-10-31T22:54:10.693Z,26
2022-10-31T22:56:40.804Z,29
2022-10-31T22:59:11.188Z,22
2022-10-31T23:01:42.015Z,25
2022-10-31T23:06:41.949Z,23
2022-10-31T23:09:12.439Z,26
2022-10-31T23:11:42.741Z,21
2022-10-31T23:14:13.432Z,20
2022-10-31T23:16:44.157Z,28
2022-10-31T23:19:14.646Z,23
2022-10-31T23:21:45.319Z,22
2022-10-31T23:24:16.102Z,21
2022-10-31T23:26:46.489Z,24
2022-10-31T23:29:17.260Z,19
2022-10-31T23:31:47.621Z,23
2022-10-31T23:34:17.465Z,28
2022-10-31T23:36:47.743Z,24
2022-10-31T23:39:21.196Z,23
2022-10-31T23:41:47.896Z,22
2022-10-31T23:44:18.692Z,23
2022-10-31T23:46:49.339Z,19
2022-10-31T23:49:19.723Z,22
2022-10-31T23:51:49.898Z,22
2022-10-31T23:54:20.326Z,21
2022-10-31T23:56:50.502Z,17
2022-10-31T23:59:20.875Z,22
